createdAt,value
2018-04-22T00:00:36.485Z,16.57
2018-04-22T00:01:36.487Z,16.57
2018-04-22T00:02:36.490Z,16.57
2018-04-22T00:03:36.493Z,16.59
2018-04-22T00:04:36.496Z,16.66
2018-04-22T00:05:36.496Z,16.54
2018-04-22T00:06:36.504Z,16.59
2018-04-22T00:07:36.502Z,16.37
2018-04-22T00:08:36.506Z,16.49
2018-04-22T00:09:36.506Z,16.43
2018-04-22T00:10:36.510Z,16.37
2018-04-22T00:11:36.512Z,16.29
2018-04-22T00:12:36.516Z,16.26
2018-04-22T00:13:36.517Z,16.24
2018-04-22T00:14:36.520Z,16.39
2018-04-22T00:15:36.525Z,16.37
2018-04-22T00:16:36.525Z,16.39
2018-04-22T00:17:36.525Z,16.41
2018-04-22T00:18:36.532Z,16.41
2018-04-22T00:19:36.530Z,16.37
2018-04-22T00:20:36.534Z,16.37
2018-04-22T00:21:36.535Z,16.28
2018-04-22T00:22:36.538Z,16.32
2018-04-22T00:23:36.541Z,16.24
2018-04-22T00:24:36.543Z,16.16
2018-04-22T00:25:36.544Z,16.12
2018-04-22T00:26:36.547Z,16.13
2018-04-22T00:27:36.549Z,16.13
2018-04-22T00:28:36.553Z,16.16
2018-04-22T00:29:36.553Z,16.21
2018-04-22T00:30:36.558Z,16.13
2018-04-22T00:31:36.558Z,16.02
2018-04-22T00:32:36.561Z,16.09
2018-04-22T00:33:36.562Z,16.08
2018-04-22T00:34:36.565Z,15.98
2018-04-22T00:35:36.567Z,15.98
2018-04-22T00:36:36.571Z,16.05
2018-04-22T00:37:36.570Z,16.06
2018-04-22T00:38:36.574Z,16.02
2018-04-22T00:39:36.576Z,16.00
2018-04-22T00:40:36.580Z,15.96
2018-04-22T00:41:36.579Z,16.08
2018-04-22T00:42:36.588Z,15.98
2018-04-22T00:43:36.584Z,16.02
2018-04-22T00:44:36.588Z,15.96
2018-04-22T00:45:36.589Z,15.92
2018-04-22T00:46:36.594Z,15.91
2018-04-22T00:47:36.594Z,16.00
2018-04-22T00:48:36.597Z,15.94
2018-04-22T00:49:36.597Z,15.88
2018-04-22T00:50:36.601Z,15.92
2018-04-22T00:51:36.605Z,15.96
2018-04-22T00:52:36.604Z,15.99
2018-04-22T00:53:36.606Z,15.99
2018-04-22T00:54:36.609Z,15.92
2018-04-22T00:55:36.611Z,15.90
2018-04-22T00:56:36.615Z,15.83
2018-04-22T00:57:36.615Z,15.76
2018-04-22T00:58:36.616Z,15.76
2018-04-22T00:59:36.619Z,15.67
2018-04-22T01:00:36.621Z,15.70
2018-04-22T01:01:36.625Z,15.69
2018-04-22T01:02:36.625Z,15.65
2018-04-22T01:03:36.627Z,15.66
2018-04-22T01:04:36.630Z,15.60
2018-04-22T01:05:36.631Z,15.59
2018-04-22T01:06:36.632Z,15.52
2018-04-22T01:07:36.636Z,15.59
2018-04-22T01:08:36.639Z,15.52
2018-04-22T01:09:36.638Z,15.57
2018-04-22T01:10:36.643Z,15.55
2018-04-22T01:11:36.642Z,15.59
2018-04-22T01:12:36.644Z,15.55
2018-04-22T01:13:36.646Z,15.63
2018-04-22T01:14:36.646Z,15.69
2018-04-22T01:15:36.650Z,15.73
2018-04-22T01:16:36.652Z,15.69
2018-04-22T01:17:36.654Z,15.76
2018-04-22T01:18:36.654Z,15.73
2018-04-22T01:19:36.662Z,15.70
2018-04-22T01:20:36.659Z,15.73
2018-04-22T01:21:36.662Z,15.78
2018-04-22T01:22:36.664Z,15.67
2018-04-22T01:23:36.664Z,15.67
2018-04-22T01:24:36.668Z,15.81
2018-04-22T01:25:36.668Z,15.70
2018-04-22T01:26:36.673Z,15.69
2018-04-22T01:27:36.674Z,15.73
2018-04-22T01:28:36.677Z,15.73
2018-04-22T01:29:36.678Z,15.73
2018-04-22T01:30:36.680Z,15.72
2018-04-22T01:31:36.682Z,15.92
2018-04-22T01:32:36.683Z,15.94
2018-04-22T01:33:36.688Z,15.87
2018-04-22T01:34:36.688Z,15.92
2018-04-22T01:35:36.690Z,15.91
2018-04-22T01:36:36.692Z,15.98
2018-04-22T01:37:36.694Z,15.92
2018-04-22T01:38:36.694Z,16.02
2018-04-22T01:39:36.698Z,15.96
2018-04-22T01:40:36.701Z,15.92
2018-04-22T01:41:36.702Z,15.91
2018-04-22T01:42:36.703Z,16.00
2018-04-22T01:43:36.706Z,15.96
2018-04-22T01:44:36.707Z,15.98
2018-04-22T01:45:36.710Z,15.96
2018-04-22T01:46:36.710Z,15.99
2018-04-22T01:47:36.713Z,15.91
2018-04-22T01:48:36.715Z,15.91
2018-04-22T01:49:36.717Z,15.84
2018-04-22T01:50:36.719Z,15.75
2018-04-22T01:51:36.721Z,15.83
2018-04-22T01:52:36.722Z,15.70
2018-04-22T01:53:36.726Z,15.67
2018-04-22T01:54:36.727Z,15.62
2018-04-22T01:55:36.726Z,15.60
2018-04-22T01:56:36.730Z,15.54
2018-04-22T01:57:36.730Z,15.50
2018-04-22T01:58:36.734Z,15.60
2018-04-22T01:59:36.735Z,15.45
2018-04-22T02:00:36.737Z,15.43
2018-04-22T02:01:36.739Z,15.51
2018-04-22T02:02:36.740Z,15.52
2018-04-22T02:03:36.741Z,15.52
2018-04-22T02:04:36.768Z,15.59
2018-04-22T02:05:36.744Z,15.70
2018-04-22T02:06:36.746Z,15.76
2018-04-22T02:07:36.748Z,15.67
2018-04-22T02:08:36.750Z,15.69
2018-04-22T02:09:36.751Z,15.70
2018-04-22T02:10:36.752Z,15.80
2018-04-22T02:11:36.755Z,15.73
2018-04-22T02:12:36.756Z,15.83
2018-04-22T02:13:36.757Z,15.78
2018-04-22T02:14:36.802Z,15.84
2018-04-22T02:15:36.762Z,15.85
2018-04-22T02:16:36.762Z,15.88
2018-04-22T02:17:36.763Z,15.88
2018-04-22T02:18:36.765Z,15.85
2018-04-22T02:19:36.768Z,15.85
2018-04-22T02:20:36.771Z,15.83
2018-04-22T02:21:36.775Z,15.85
2018-04-22T02:22:36.774Z,15.76
2018-04-22T02:23:36.774Z,15.72
2018-04-22T02:24:36.777Z,15.57
2018-04-22T02:25:36.778Z,15.39
2018-04-22T02:26:36.780Z,15.45
2018-04-22T02:27:36.782Z,15.43
2018-04-22T02:28:36.784Z,15.30
2018-04-22T02:29:36.783Z,15.33
2018-04-22T02:30:36.786Z,15.32
2018-04-22T02:31:36.789Z,15.30
2018-04-22T02:32:36.791Z,15.32
2018-04-22T02:33:36.791Z,15.35
2018-04-22T02:34:36.793Z,15.37
2018-04-22T02:35:36.793Z,15.33
2018-04-22T02:36:36.794Z,15.27
2018-04-22T02:37:36.798Z,15.30
2018-04-22T02:38:36.798Z,15.27
2018-04-22T02:39:36.806Z,15.32
2018-04-22T02:40:36.802Z,15.25
2018-04-22T02:41:36.802Z,15.14
2018-04-22T02:42:36.806Z,15.19
2018-04-22T02:43:36.850Z,15.23
2018-04-22T02:44:36.806Z,15.12
2018-04-22T02:45:36.807Z,15.29
2018-04-22T02:46:36.808Z,15.32
2018-04-22T02:47:36.810Z,15.41
2018-04-22T02:48:36.811Z,15.43
2018-04-22T02:49:36.812Z,15.39
2018-04-22T02:50:36.813Z,15.37
2018-04-22T02:51:36.816Z,15.43
2018-04-22T02:52:36.818Z,15.43
2018-04-22T02:53:36.818Z,15.39
2018-04-22T02:54:36.820Z,15.41
2018-04-22T02:55:36.821Z,15.43
2018-04-22T02:56:36.823Z,15.33
2018-04-22T02:57:36.823Z,15.30
2018-04-22T02:58:36.827Z,15.30
2018-04-22T02:59:36.827Z,15.30
2018-04-22T03:00:36.827Z,15.37
2018-04-22T03:01:36.829Z,15.30
2018-04-22T03:02:36.831Z,15.30
2018-04-22T03:03:36.833Z,15.26
2018-04-22T03:04:36.834Z,15.23
2018-04-22T03:05:36.835Z,15.30
2018-04-22T03:06:36.838Z,15.29
2018-04-22T03:07:36.838Z,15.35
2018-04-22T03:08:36.838Z,15.23
2018-04-22T03:09:36.839Z,15.26
2018-04-22T03:10:36.842Z,15.17
2018-04-22T03:11:36.842Z,15.14
2018-04-22T03:12:36.845Z,15.07
2018-04-22T03:13:36.846Z,15.05
2018-04-22T03:14:36.847Z,15.02
2018-04-22T03:15:36.848Z,15.05
2018-04-22T03:16:36.851Z,15.00
2018-04-22T03:17:36.851Z,15.02
2018-04-22T03:18:36.851Z,15.05
2018-04-22T03:19:36.854Z,15.08
2018-04-22T03:20:36.855Z,15.05
2018-04-22T03:21:36.856Z,15.23
2018-04-22T03:22:36.857Z,15.12
2018-04-22T03:23:36.859Z,15.14
2018-04-22T03:24:36.861Z,15.15
2018-04-22T03:25:36.861Z,15.17
2018-04-22T03:26:36.861Z,15.15
2018-04-22T03:27:36.864Z,15.25
2018-04-22T03:28:36.865Z,15.14
2018-04-22T03:29:36.865Z,15.12
2018-04-22T03:30:36.869Z,15.11
2018-04-22T03:31:36.869Z,15.05
2018-04-22T03:32:36.871Z,15.22
2018-04-22T03:33:36.871Z,15.12
2018-04-22T03:34:36.873Z,15.18
2018-04-22T03:35:36.873Z,15.17
2018-04-22T03:36:36.875Z,15.17
2018-04-22T03:37:36.878Z,15.15
2018-04-22T03:38:36.878Z,15.22
2018-04-22T03:39:36.880Z,15.23
2018-04-22T03:40:36.886Z,15.18
2018-04-22T03:41:36.887Z,15.18
2018-04-22T03:42:36.933Z,15.10
2018-04-22T03:43:36.884Z,15.15
2018-04-22T03:44:36.887Z,15.12
2018-04-22T03:45:36.887Z,15.14
2018-04-22T03:46:36.889Z,15.18
2018-04-22T03:47:36.890Z,15.15
2018-04-22T03:48:36.892Z,15.05
2018-04-22T03:49:36.895Z,15.17
2018-04-22T03:50:36.894Z,15.05
2018-04-22T03:51:36.898Z,15.04
2018-04-22T03:52:36.943Z,15.11
2018-04-22T03:53:36.899Z,15.00
2018-04-22T03:54:36.899Z,14.97
2018-04-22T03:55:36.901Z,14.94
2018-04-22T03:57:36.905Z,14.96
2018-04-22T03:58:36.902Z,14.92
2018-04-22T03:59:36.904Z,15.02
2018-04-22T04:00:36.907Z,14.99
2018-04-22T04:01:36.907Z,15.02
2018-04-22T04:02:36.908Z,14.87
2018-04-22T04:03:36.909Z,14.99
2018-04-22T04:04:36.910Z,14.85
2018-04-22T04:05:36.913Z,14.89
2018-04-22T04:06:36.912Z,15.04
2018-04-22T04:07:36.913Z,14.96
2018-04-22T04:08:36.915Z,14.90
2018-04-22T04:09:36.916Z,14.94
2018-04-22T04:10:36.915Z,14.77
2018-04-22T04:11:36.918Z,14.81
2018-04-22T04:12:36.920Z,14.79
2018-04-22T04:13:36.919Z,14.74
2018-04-22T04:14:36.921Z,14.79
2018-04-22T04:15:36.923Z,14.59
2018-04-22T04:16:36.926Z,14.48
2018-04-22T04:17:36.925Z,14.40
2018-04-22T04:18:36.928Z,14.40
2018-04-22T04:19:36.928Z,14.26
2018-04-22T04:20:36.929Z,14.37
2018-04-22T04:21:36.929Z,14.36
2018-04-22T04:22:36.931Z,14.33
2018-04-22T04:23:36.931Z,14.37
2018-04-22T04:24:36.933Z,14.41
2018-04-22T04:25:36.933Z,14.43
2018-04-22T04:26:36.935Z,14.52
2018-04-22T04:27:36.936Z,14.56
2018-04-22T04:28:36.937Z,14.62
2018-04-22T04:29:36.936Z,14.66
2018-04-22T04:30:36.938Z,14.61
2018-04-22T04:31:36.939Z,14.70
2018-04-22T04:32:36.941Z,14.63
2018-04-22T04:33:36.942Z,14.68
2018-04-22T04:34:36.944Z,14.61
2018-04-22T04:35:36.945Z,14.61
2018-04-22T04:36:36.945Z,14.45
2018-04-22T04:37:36.944Z,14.48
2018-04-22T04:38:36.944Z,14.40
2018-04-22T04:39:36.947Z,14.45
2018-04-22T04:40:36.953Z,14.45
2018-04-22T04:41:36.948Z,14.58
2018-04-22T04:42:36.951Z,14.61
2018-04-22T04:43:36.949Z,14.56
2018-04-22T04:44:36.954Z,14.63
2018-04-22T04:45:36.952Z,14.67
2018-04-22T04:46:36.954Z,14.68
2018-04-22T04:47:36.955Z,14.73
2018-04-22T04:48:36.959Z,14.70
2018-04-22T04:49:36.957Z,14.71
2018-04-22T04:50:36.956Z,14.73
2018-04-22T04:51:36.959Z,14.81
2018-04-22T04:52:36.960Z,14.85
2018-04-22T04:53:36.960Z,14.85
2018-04-22T04:54:36.962Z,14.96
2018-04-22T04:55:36.962Z,14.97
2018-04-22T04:56:36.966Z,14.97
2018-04-22T04:57:36.965Z,14.85
2018-04-22T04:58:36.968Z,14.87
2018-04-22T04:59:36.967Z,14.81
2018-04-22T05:00:36.968Z,14.77
2018-04-22T05:01:36.969Z,14.78
2018-04-22T05:02:36.971Z,14.74
2018-04-22T05:03:36.970Z,14.78
2018-04-22T05:04:36.975Z,14.74
2018-04-22T05:05:36.974Z,14.82
2018-04-22T05:06:36.976Z,14.71
2018-04-22T05:07:36.975Z,14.74
2018-04-22T05:08:36.977Z,14.78
2018-04-22T05:09:36.980Z,14.74
2018-04-22T05:10:36.999Z,14.87
2018-04-22T05:11:36.980Z,14.87
2018-04-22T05:12:36.980Z,14.87
2018-04-22T05:13:36.982Z,15.02
2018-04-22T05:14:36.981Z,14.97
2018-04-22T05:15:36.984Z,15.04
2018-04-22T05:16:36.984Z,15.11
2018-04-22T05:17:36.984Z,15.08
2018-04-22T05:18:36.987Z,15.05
2018-04-22T05:19:36.996Z,15.14
2018-04-22T05:20:36.990Z,15.15
2018-04-22T05:21:36.995Z,15.08
2018-04-22T05:22:36.992Z,15.23
2018-04-22T05:23:36.992Z,15.23
2018-04-22T05:24:37.004Z,15.29
2018-04-22T05:25:36.996Z,15.29
2018-04-22T05:26:36.996Z,15.39
2018-04-22T05:27:36.998Z,15.37
2018-04-22T05:28:37.000Z,15.44
2018-04-22T05:29:37.001Z,15.41
2018-04-22T05:30:37.001Z,15.52
2018-04-22T05:31:37.004Z,15.57
2018-04-22T05:32:37.008Z,15.65
2018-04-22T05:33:37.007Z,15.67
2018-04-22T05:34:37.012Z,15.69
2018-04-22T05:35:37.011Z,15.65
2018-04-22T05:36:37.012Z,15.55
2018-04-22T05:37:37.012Z,15.57
2018-04-22T05:38:37.014Z,15.57
2018-04-22T05:39:37.016Z,15.55
2018-04-22T05:40:37.018Z,15.54
2018-04-22T05:41:37.018Z,15.63
2018-04-22T05:42:37.024Z,15.76
2018-04-22T05:43:37.023Z,15.78
2018-04-22T05:44:37.025Z,15.67
2018-04-22T05:45:37.025Z,15.67
2018-04-22T05:46:37.028Z,15.78
2018-04-22T05:47:37.028Z,15.90
2018-04-22T05:48:37.030Z,15.96
2018-04-22T05:49:37.032Z,16.00
2018-04-22T05:50:37.035Z,16.08
2018-04-22T05:51:37.037Z,16.13
2018-04-22T05:52:37.039Z,16.18
2018-04-22T05:53:37.040Z,16.31
2018-04-22T05:54:37.042Z,16.29
2018-04-22T05:55:37.044Z,16.36
2018-04-22T05:56:37.048Z,16.49
2018-04-22T05:57:37.048Z,16.49
2018-04-22T05:59:37.053Z,16.59
2018-04-22T06:00:37.054Z,16.74
2018-04-22T06:01:37.061Z,16.69
2018-04-22T06:02:37.059Z,16.82
2018-04-22T06:03:37.060Z,16.79
2018-04-22T06:04:37.065Z,16.80
2018-04-22T06:05:37.066Z,16.82
2018-04-22T06:06:37.068Z,16.99
2018-04-22T06:07:37.071Z,16.98
2018-04-22T06:08:37.076Z,17.01
2018-04-22T06:09:37.074Z,17.13
2018-04-22T06:10:37.077Z,17.12
2018-04-22T06:11:37.086Z,17.24
2018-04-22T06:12:37.082Z,17.19
2018-04-22T06:13:37.085Z,17.17
2018-04-22T06:14:37.088Z,17.31
2018-04-22T06:15:37.090Z,17.37
2018-04-22T06:16:37.092Z,17.44
2018-04-22T06:17:37.099Z,17.56
2018-04-22T06:18:37.098Z,17.63
2018-04-22T06:19:37.101Z,17.69
2018-04-22T06:20:37.103Z,17.76
2018-04-22T06:21:37.106Z,17.78
2018-04-22T06:22:37.109Z,17.84
2018-04-22T06:23:37.112Z,17.87
2018-04-22T06:24:37.118Z,18.02
2018-04-22T06:25:37.119Z,18.02
2018-04-22T06:26:37.121Z,18.03
2018-04-22T06:27:37.123Z,18.16
2018-04-22T06:28:37.129Z,18.19
2018-04-22T06:29:37.135Z,18.16
2018-04-22T06:30:37.133Z,18.30
2018-04-22T06:31:37.136Z,18.30
2018-04-22T06:32:37.145Z,18.42
2018-04-22T06:33:37.196Z,18.48
2018-04-22T06:34:37.147Z,18.39
2018-04-22T06:35:37.150Z,18.49
2018-04-22T06:36:37.157Z,18.55
2018-04-22T06:37:37.156Z,18.52
2018-04-22T06:38:37.158Z,18.66
2018-04-22T06:39:37.163Z,18.67
2018-04-22T06:40:37.167Z,18.71
2018-04-22T06:41:37.170Z,18.73
2018-04-22T06:42:37.173Z,18.92
2018-04-22T06:43:37.177Z,19.08
2018-04-22T06:44:37.183Z,19.53
2018-04-22T06:45:37.187Z,20.18
2018-04-22T06:46:37.191Z,21.15
2018-04-22T06:47:37.198Z,22.08
2018-04-22T06:48:37.206Z,22.99
2018-04-22T06:49:37.213Z,23.73
2018-04-22T06:50:37.221Z,24.28
2018-04-22T06:51:37.231Z,25.00
2018-04-22T06:52:37.241Z,25.43
2018-04-22T06:53:37.251Z,25.92
2018-04-22T06:54:37.261Z,26.13
2018-04-22T06:55:37.272Z,26.44
2018-04-22T06:56:37.285Z,26.67
2018-04-22T06:57:37.296Z,26.53
2018-04-22T06:58:37.308Z,26.70
2018-04-22T06:59:37.324Z,26.97
2018-04-22T07:00:37.337Z,27.23
2018-04-22T07:01:37.347Z,27.66
2018-04-22T07:02:37.362Z,27.85
2018-04-22T07:03:37.374Z,28.03
2018-04-22T07:04:37.388Z,27.95
2018-04-22T07:05:37.400Z,27.90
2018-04-22T07:06:37.417Z,27.83
2018-04-22T07:07:37.430Z,27.79
2018-04-22T07:08:37.443Z,27.86
2018-04-22T07:09:37.456Z,27.79
2018-04-22T07:10:37.470Z,27.79
2018-04-22T07:11:37.485Z,27.57
2018-04-22T07:12:37.497Z,27.48
2018-04-22T07:13:37.511Z,27.29
2018-04-22T07:14:37.524Z,26.91
2018-04-22T07:15:37.538Z,26.64
2018-04-22T07:16:37.601Z,26.29
2018-04-22T07:17:37.559Z,25.85
2018-04-22T07:18:37.570Z,25.52
2018-04-22T07:19:37.585Z,25.55
2018-04-22T07:20:37.592Z,25.48
2018-04-22T07:21:37.603Z,25.26
2018-04-22T07:22:37.618Z,24.92
2018-04-22T07:23:37.625Z,24.65
2018-04-22T07:24:37.638Z,24.53
2018-04-22T07:25:37.645Z,24.31
2018-04-22T07:26:37.654Z,24.06
2018-04-22T07:27:37.663Z,24.16
2018-04-22T07:28:37.674Z,24.18
2018-04-22T07:29:37.685Z,24.19
2018-04-22T07:30:37.691Z,24.18
2018-04-22T07:31:37.700Z,24.18
2018-04-22T07:32:37.710Z,24.21
2018-04-22T07:33:37.716Z,24.03
2018-04-22T07:34:37.727Z,23.86
2018-04-22T07:35:37.735Z,23.76
2018-04-22T07:36:37.745Z,23.67
2018-04-22T07:37:37.754Z,23.79
2018-04-22T07:38:37.761Z,23.81
2018-04-22T07:39:37.769Z,23.92
2018-04-22T07:40:37.791Z,23.89
2018-04-22T07:41:37.785Z,23.84
2018-04-22T07:42:37.808Z,23.58
2018-04-22T07:43:37.803Z,23.49
2018-04-22T07:44:37.813Z,23.58
2018-04-22T07:45:37.819Z,23.82
2018-04-22T07:46:37.828Z,24.00
2018-04-22T07:47:37.837Z,23.82
2018-04-22T07:48:37.845Z,23.89
2018-04-22T07:49:37.853Z,24.04
2018-04-22T07:50:37.861Z,24.18
2018-04-22T07:51:37.872Z,24.34
2018-04-22T07:52:37.879Z,24.29
2018-04-22T07:53:37.886Z,24.16
2018-04-22T07:54:37.895Z,24.25
2018-04-22T07:55:37.903Z,24.29
2018-04-22T07:56:37.915Z,24.36
2018-04-22T07:57:37.922Z,24.41
2018-04-22T07:58:37.929Z,24.53
2018-04-22T07:59:37.939Z,24.50
2018-04-22T08:00:37.949Z,24.84
2018-04-22T08:01:37.958Z,25.01
2018-04-22T08:02:37.967Z,25.18
2018-04-22T08:03:37.977Z,25.22
2018-04-22T08:04:37.989Z,25.11
2018-04-22T08:05:37.996Z,25.18
2018-04-22T08:06:38.012Z,25.31
2018-04-22T08:07:38.020Z,25.54
2018-04-22T08:08:38.032Z,25.88
2018-04-22T08:09:38.042Z,25.96
2018-04-22T08:10:38.054Z,26.10
2018-04-22T08:11:38.065Z,26.30
2018-04-22T08:12:38.077Z,26.42
2018-04-22T08:13:38.089Z,26.56
2018-04-22T08:14:38.102Z,26.88
2018-04-22T08:15:38.115Z,26.98
2018-04-22T08:16:38.128Z,27.10
2018-04-22T08:17:38.141Z,27.47
2018-04-22T08:18:38.155Z,27.85
2018-04-22T08:19:38.169Z,28.40
2018-04-22T08:20:38.185Z,28.77
2018-04-22T08:21:38.199Z,29.05
2018-04-22T08:22:38.214Z,28.82
2018-04-22T08:23:38.229Z,28.38
2018-04-22T08:24:38.244Z,28.01
2018-04-22T08:25:38.259Z,27.98
2018-04-22T08:26:38.273Z,27.75
2018-04-22T08:27:38.288Z,27.68
2018-04-22T08:28:38.301Z,27.53
2018-04-22T08:29:38.323Z,27.47
2018-04-22T08:30:38.329Z,27.58
2018-04-22T08:31:38.343Z,27.45
2018-04-22T08:32:38.357Z,27.63
2018-04-22T08:33:38.370Z,27.73
2018-04-22T08:34:38.385Z,27.88
2018-04-22T08:35:38.401Z,28.04
2018-04-22T08:36:38.412Z,28.20
2018-04-22T08:37:38.423Z,28.10
2018-04-22T08:38:38.437Z,27.85
2018-04-22T08:39:38.451Z,27.30
2018-04-22T08:40:38.463Z,26.73
2018-04-22T08:41:38.476Z,26.36
2018-04-22T08:42:38.489Z,25.99
2018-04-22T08:43:38.501Z,25.74
2018-04-22T08:44:38.514Z,25.40
2018-04-22T08:45:38.525Z,25.41
2018-04-22T08:46:38.535Z,25.48
2018-04-22T08:47:38.547Z,25.54
2018-04-22T08:48:38.562Z,25.63
2018-04-22T08:49:38.569Z,25.96
2018-04-22T08:50:38.643Z,26.15
2018-04-22T08:51:38.592Z,26.53
2018-04-22T08:52:38.603Z,26.97
2018-04-22T08:53:38.616Z,27.44
2018-04-22T08:54:38.629Z,27.71
2018-04-22T08:55:38.649Z,27.90
2018-04-22T08:56:38.705Z,28.10
2018-04-22T08:57:38.667Z,28.09
2018-04-22T08:58:38.679Z,28.41
2018-04-22T08:59:38.693Z,28.77
2018-04-22T09:00:38.706Z,29.16
2018-04-22T09:01:38.720Z,29.58
2018-04-22T09:02:38.735Z,29.90
2018-04-22T09:03:38.752Z,29.94
2018-04-22T09:04:38.769Z,29.84
2018-04-22T09:05:38.784Z,29.65
2018-04-22T09:06:38.839Z,29.57
2018-04-22T09:07:38.814Z,29.68
2018-04-22T09:08:38.830Z,29.89
2018-04-22T09:09:38.846Z,29.92
2018-04-22T09:10:38.863Z,30.13
2018-04-22T09:11:38.879Z,30.35
2018-04-22T09:12:38.897Z,30.48
2018-04-22T09:13:38.913Z,30.76
2018-04-22T09:14:38.931Z,30.85
2018-04-22T09:15:38.948Z,30.70
2018-04-22T09:16:38.965Z,30.88
2018-04-22T09:17:38.982Z,31.25
2018-04-22T09:18:39.000Z,31.45
2018-04-22T09:19:39.018Z,31.51
2018-04-22T09:20:39.037Z,31.55
2018-04-22T09:21:39.055Z,31.57
2018-04-22T09:22:39.072Z,31.48
2018-04-22T09:23:39.091Z,31.73
2018-04-22T09:24:39.112Z,31.89
2018-04-22T09:25:39.126Z,31.66
2018-04-22T09:26:39.145Z,31.44
2018-04-22T09:27:39.165Z,30.74
2018-04-22T09:28:39.183Z,30.91
2018-04-22T09:29:39.204Z,31.04
2018-04-22T09:30:39.222Z,31.41
2018-04-22T09:31:39.238Z,31.52
2018-04-22T09:32:39.255Z,31.55
2018-04-22T09:33:39.275Z,31.66
2018-04-22T09:34:39.293Z,31.86
2018-04-22T09:35:39.312Z,31.89
2018-04-22T09:36:39.335Z,31.54
2018-04-22T09:37:39.348Z,31.45
2018-04-22T09:38:39.368Z,31.28
2018-04-22T09:39:39.386Z,31.23
2018-04-22T09:40:39.405Z,31.26
2018-04-22T09:41:39.423Z,31.48
2018-04-22T09:42:39.442Z,31.74
2018-04-22T09:43:39.461Z,32.02
2018-04-22T09:44:39.479Z,32.23
2018-04-22T09:45:39.497Z,32.12
2018-04-22T09:46:39.519Z,31.89
2018-04-22T09:47:39.535Z,31.81
2018-04-22T09:48:39.554Z,31.41
2018-04-22T09:49:39.572Z,30.67
2018-04-22T09:50:39.589Z,29.98
2018-04-22T09:51:39.609Z,29.99
2018-04-22T09:52:39.627Z,30.13
2018-04-22T09:53:39.647Z,30.32
2018-04-22T09:54:39.663Z,30.26
2018-04-22T09:55:39.727Z,30.11
2018-04-22T09:56:39.700Z,29.71
2018-04-22T09:57:39.717Z,29.99
2018-04-22T09:58:39.736Z,30.13
2018-04-22T09:59:39.752Z,30.58
2018-04-22T10:00:39.771Z,30.73
2018-04-22T10:01:39.788Z,30.99
2018-04-22T10:02:39.806Z,31.45
2018-04-22T10:03:39.824Z,31.55
2018-04-22T10:04:39.842Z,31.50
2018-04-22T10:05:39.858Z,30.98
2018-04-22T10:06:39.876Z,30.99
2018-04-22T10:07:39.894Z,31.15
2018-04-22T10:08:39.913Z,31.36
2018-04-22T10:09:39.931Z,31.17
2018-04-22T10:10:39.946Z,30.91
2018-04-22T10:11:39.964Z,30.58
2018-04-22T10:12:39.980Z,30.58
2018-04-22T10:13:39.998Z,30.43
2018-04-22T10:14:40.016Z,30.61
2018-04-22T10:15:40.033Z,30.62
2018-04-22T10:16:40.055Z,30.51
2018-04-22T10:17:40.073Z,30.43
2018-04-22T10:18:40.085Z,30.71
2018-04-22T10:19:40.102Z,30.81
2018-04-22T10:20:40.118Z,30.89
2018-04-22T10:21:40.136Z,31.08
2018-04-22T10:22:40.153Z,31.30
2018-04-22T10:23:40.170Z,31.22
2018-04-22T10:24:40.190Z,31.00
2018-04-22T10:25:40.203Z,31.15
2018-04-22T10:26:40.221Z,30.70
2018-04-22T10:27:40.275Z,30.44
2018-04-22T10:28:40.261Z,30.16
2018-04-22T10:29:40.272Z,30.08
2018-04-22T10:30:40.290Z,29.59
2018-04-22T10:31:40.309Z,28.74
2018-04-22T10:32:40.323Z,28.13
2018-04-22T10:33:40.337Z,27.67
2018-04-22T10:34:40.364Z,27.95
2018-04-22T10:35:40.371Z,28.19
2018-04-22T10:36:40.385Z,28.75
2018-04-22T10:37:40.401Z,29.15
2018-04-22T10:38:40.416Z,29.58
2018-04-22T10:39:40.431Z,29.61
2018-04-22T10:40:40.448Z,29.58
2018-04-22T10:41:40.462Z,29.86
2018-04-22T10:42:40.477Z,30.03
2018-04-22T10:43:40.494Z,29.71
2018-04-22T10:44:40.509Z,29.50
2018-04-22T10:45:40.522Z,29.37
2018-04-22T10:46:40.588Z,29.09
2018-04-22T10:47:40.558Z,29.12
2018-04-22T10:48:40.570Z,29.13
2018-04-22T10:49:40.586Z,29.10
2018-04-22T10:50:40.601Z,29.21
2018-04-22T10:51:40.617Z,29.09
2018-04-22T10:52:40.631Z,29.15
2018-04-22T10:53:40.647Z,29.44
2018-04-22T10:54:40.663Z,29.90
2018-04-22T10:55:40.678Z,30.31
2018-04-22T10:56:40.693Z,30.62
2018-04-22T10:57:40.708Z,30.67
2018-04-22T10:58:40.724Z,30.55
2018-04-22T10:59:40.740Z,30.85
2018-04-22T11:00:40.756Z,31.10
2018-04-22T11:01:40.772Z,31.30
2018-04-22T11:02:40.787Z,31.45
2018-04-22T11:03:40.802Z,31.48
2018-04-22T11:04:40.840Z,31.70
2018-04-22T11:05:40.836Z,31.95
2018-04-22T11:06:40.850Z,32.00
2018-04-22T11:07:40.866Z,31.87
2018-04-22T11:08:40.883Z,31.78
2018-04-22T11:09:40.898Z,31.47
2018-04-22T11:10:40.914Z,31.47
2018-04-22T11:11:40.930Z,31.52
2018-04-22T11:12:40.948Z,31.60
2018-04-22T11:13:40.963Z,31.67
2018-04-22T11:14:40.983Z,31.50
2018-04-22T11:15:40.996Z,31.15
2018-04-22T11:16:41.013Z,31.22
2018-04-22T11:17:41.028Z,31.20
2018-04-22T11:18:41.044Z,31.36
2018-04-22T11:19:41.060Z,31.37
2018-04-22T11:20:41.078Z,31.28
2018-04-22T11:21:41.093Z,31.39
2018-04-22T11:22:41.109Z,31.55
2018-04-22T11:23:41.125Z,31.67
2018-04-22T11:24:41.148Z,31.86
2018-04-22T11:25:41.156Z,31.86
2018-04-22T11:26:41.175Z,31.77
2018-04-22T11:27:41.191Z,31.79
2018-04-22T11:28:41.209Z,31.50
2018-04-22T11:29:41.220Z,30.83
2018-04-22T11:30:41.239Z,30.81
2018-04-22T11:31:41.255Z,31.05
2018-04-22T11:32:41.274Z,31.17
2018-04-22T11:33:41.287Z,30.99
2018-04-22T11:34:41.329Z,31.30
2018-04-22T11:35:41.319Z,31.47
2018-04-22T11:36:41.335Z,31.37
2018-04-22T11:37:41.351Z,31.25
2018-04-22T11:38:41.368Z,31.41
2018-04-22T11:39:41.384Z,31.36
2018-04-22T11:40:41.400Z,31.22
2018-04-22T11:41:41.417Z,31.22
2018-04-22T11:42:41.430Z,31.15
2018-04-22T11:43:41.447Z,31.15
2018-04-22T11:44:41.464Z,31.30
2018-04-22T11:45:41.481Z,30.99
2018-04-22T11:46:41.499Z,31.15
2018-04-22T11:47:41.515Z,31.33
2018-04-22T11:48:41.526Z,31.41
2018-04-22T11:49:41.589Z,31.41
2018-04-22T11:50:41.558Z,31.52
2018-04-22T11:51:41.574Z,31.87
2018-04-22T11:52:41.592Z,32.04
2018-04-22T11:53:41.605Z,32.27
2018-04-22T11:54:41.621Z,32.39
2018-04-22T11:55:41.636Z,32.37
2018-04-22T11:56:41.653Z,32.35
2018-04-22T11:57:41.669Z,32.07
2018-04-22T11:58:41.686Z,31.48
2018-04-22T11:59:41.700Z,31.14
2018-04-22T12:00:41.718Z,30.92
2018-04-22T12:01:41.732Z,30.62
2018-04-22T12:02:41.747Z,30.10
2018-04-22T12:03:41.763Z,29.80
2018-04-22T12:04:41.779Z,29.27
2018-04-22T12:05:41.792Z,29.13
2018-04-22T12:06:41.806Z,29.10
2018-04-22T12:07:41.821Z,29.06
2018-04-22T12:08:41.835Z,28.89
2018-04-22T12:09:41.850Z,29.12
2018-04-22T12:10:41.861Z,29.24
2018-04-22T12:11:41.875Z,29.61
2018-04-22T12:12:41.890Z,29.73
2018-04-22T12:13:41.903Z,29.83
2018-04-22T12:14:41.972Z,29.89
2018-04-22T12:15:41.931Z,29.98
2018-04-22T12:16:41.945Z,30.16
2018-04-22T12:17:41.958Z,30.14
2018-04-22T12:18:41.971Z,30.23
2018-04-22T12:19:41.986Z,30.26
2018-04-22T12:20:42.064Z,30.33
2018-04-22T12:21:42.015Z,30.43
2018-04-22T12:22:42.028Z,30.61
2018-04-22T12:23:42.043Z,30.71
2018-04-22T12:24:42.057Z,30.70
2018-04-22T12:25:42.070Z,30.67
2018-04-22T12:26:42.085Z,30.61
2018-04-22T12:27:42.099Z,30.65
2018-04-22T12:28:42.114Z,30.73
2018-04-22T12:29:42.126Z,30.86
2018-04-22T12:30:42.140Z,30.85
2018-04-22T12:31:42.156Z,31.20
2018-04-22T12:32:42.171Z,31.02
2018-04-22T12:33:42.184Z,30.95
2018-04-22T12:34:42.199Z,31.22
2018-04-22T12:35:42.213Z,31.29
2018-04-22T12:36:42.230Z,31.59
2018-04-22T12:37:42.244Z,31.41
2018-04-22T12:38:42.254Z,31.39
2018-04-22T12:39:42.271Z,31.54
2018-04-22T12:40:42.285Z,31.52
2018-04-22T12:41:42.299Z,31.55
2018-04-22T12:42:42.313Z,31.59
2018-04-22T12:43:42.328Z,31.52
2018-04-22T12:44:42.342Z,31.23
2018-04-22T12:45:42.356Z,30.96
2018-04-22T12:46:42.375Z,31.08
2018-04-22T12:47:42.385Z,31.20
2018-04-22T12:48:42.398Z,31.08
2018-04-22T12:49:42.413Z,30.70
2018-04-22T12:50:42.429Z,30.23
2018-04-22T12:51:42.448Z,29.74
2018-04-22T12:52:42.455Z,29.50
2018-04-22T12:53:42.469Z,29.24
2018-04-22T12:54:42.519Z,28.92